createdAt,value
2023-05-05T00:10:04.364Z,24.37
2023-05-05T00:11:04.433Z,24.37
2023-05-05T00:12:04.363Z,24.30
2023-05-05T00:13:04.419Z,24.33
2023-05-05T00:14:04.437Z,24.30
2023-05-05T00:15:04.455Z,24.33
2023-05-05T00:16:04.793Z,24.29
2023-05-05T00:17:04.562Z,24.29
2023-05-05T00:18:04.599Z,24.29
2023-05-05T00:19:04.599Z,24.27
2023-05-05T00:20:04.624Z,24.31
2023-05-05T00:21:04.656Z,24.30
2023-05-05T00:22:04.978Z,24.31
2023-05-05T00:23:04.711Z,24.23
2023-05-05T00:24:04.760Z,24.19
2023-05-05T00:25:04.822Z,24.26
2023-05-05T00:26:04.831Z,24.16
2023-05-05T00:27:04.843Z,24.21
2023-05-05T00:28:04.886Z,24.21
2023-05-05T00:29:05.205Z,24.21
2023-05-05T00:30:05.027Z,24.16
2023-05-05T00:31:05.020Z,24.21
2023-05-05T00:32:05.008Z,24.14
2023-05-05T00:33:05.044Z,24.18
2023-05-05T00:34:05.066Z,24.18
2023-05-05T00:35:05.104Z,24.16
2023-05-05T00:36:05.439Z,24.16
2023-05-05T00:37:05.162Z,24.14
2023-05-05T00:38:05.252Z,24.09
2023-05-05T00:40:05.399Z,24.15
2023-05-05T00:41:48.717Z,24.19
2023-05-05T00:42:48.724Z,24.14
2023-05-05T00:43:48.760Z,24.18
2023-05-05T00:44:48.790Z,24.16
2023-05-05T00:46:48.912Z,24.15
2023-05-05T00:47:49.258Z,24.15
2023-05-05T00:48:48.967Z,24.21
2023-05-05T00:49:48.952Z,24.12
2023-05-05T00:50:48.993Z,24.16
2023-05-05T00:51:49.021Z,24.09
2023-05-05T00:52:49.092Z,24.23
2023-05-05T00:53:49.440Z,24.19
2023-05-05T00:54:49.119Z,24.18
2023-05-05T00:55:49.171Z,24.15
2023-05-05T00:56:49.186Z,24.18
2023-05-05T00:57:49.240Z,24.14
2023-05-05T00:58:49.261Z,24.06
2023-05-05T00:59:49.280Z,24.12
2023-05-05T01:00:49.564Z,24.11
2023-05-05T01:01:49.377Z,24.11
2023-05-05T01:02:49.431Z,24.11
2023-05-05T01:03:49.533Z,24.06
2023-05-05T01:04:49.449Z,24.05
2023-05-05T01:05:49.493Z,24.05
2023-05-05T01:06:49.511Z,24.04
2023-05-05T01:07:49.791Z,24.04
2023-05-05T01:08:49.574Z,24.02
2023-05-05T01:09:53.571Z,23.97
2023-05-05T01:10:49.652Z,24.00
2023-05-05T01:11:49.662Z,24.08
2023-05-05T01:12:49.772Z,24.02
2023-05-05T01:13:49.754Z,23.99
2023-05-05T01:14:50.069Z,23.97
2023-05-05T01:15:49.829Z,23.99
2023-05-05T01:16:49.835Z,24.00
2023-05-05T01:17:49.893Z,23.96
2023-05-05T01:18:49.908Z,23.99
2023-05-05T01:19:49.930Z,23.94
2023-05-05T01:20:49.959Z,24.02
2023-05-05T01:21:50.306Z,23.94
2023-05-05T01:22:50.027Z,23.90
2023-05-05T01:23:50.056Z,23.81
2023-05-05T01:24:50.083Z,23.96
2023-05-05T01:25:50.126Z,23.86
2023-05-05T01:26:50.158Z,23.90
2023-05-05T01:27:50.253Z,23.84
2023-05-05T01:28:50.554Z,23.87
2023-05-05T01:30:50.314Z,24.00
2023-05-05T01:31:50.382Z,23.94
2023-05-05T01:32:50.361Z,23.86
2023-05-05T01:33:50.378Z,23.93
2023-05-05T01:34:50.410Z,23.89
2023-05-05T01:35:50.749Z,23.92
2023-05-05T01:37:50.517Z,23.93
2023-05-05T01:38:50.549Z,23.93
2023-05-05T01:39:50.586Z,23.87
2023-05-05T01:40:50.610Z,23.84
2023-05-05T01:41:50.641Z,23.86
2023-05-05T01:42:50.965Z,23.87
2023-05-05T01:43:50.754Z,23.89
2023-05-05T01:45:50.824Z,23.84
2023-05-05T01:46:50.822Z,23.89
2023-05-05T01:47:50.856Z,23.82
2023-05-05T01:48:50.882Z,23.81
2023-05-05T01:49:51.202Z,23.79
2023-05-05T01:50:50.932Z,23.72
2023-05-05T01:51:50.966Z,23.79
2023-05-05T01:52:50.984Z,23.79
2023-05-05T01:53:51.029Z,23.77
2023-05-05T01:54:51.068Z,23.77
2023-05-05T01:55:51.101Z,23.75
2023-05-05T01:56:51.450Z,23.72
2023-05-05T01:57:51.154Z,23.78
2023-05-05T01:58:51.183Z,23.69
2023-05-05T01:59:51.210Z,23.81
2023-05-05T02:00:51.258Z,23.68
2023-05-05T02:01:51.332Z,23.72
2023-05-05T02:02:51.411Z,23.78
2023-05-05T02:03:51.646Z,23.69
2023-05-05T02:04:51.403Z,23.67
2023-05-05T02:05:51.413Z,23.69
2023-05-05T02:06:51.452Z,23.68
2023-05-05T02:07:51.467Z,23.64
2023-05-05T02:08:51.506Z,23.74
2023-05-05T02:10:51.869Z,23.63
2023-05-05T02:11:51.638Z,23.69
2023-05-05T02:12:51.652Z,23.59
2023-05-05T02:13:51.710Z,23.62
2023-05-05T02:14:51.816Z,23.67
2023-05-05T02:15:51.748Z,23.62
2023-05-05T02:16:51.760Z,23.60
2023-05-05T02:17:52.186Z,23.64
2023-05-05T02:18:51.893Z,23.57
2023-05-05T02:19:51.860Z,23.60
2023-05-05T02:20:51.900Z,23.63
2023-05-05T02:21:51.943Z,23.57
2023-05-05T02:22:51.995Z,23.57
2023-05-05T02:23:52.311Z,23.52
2023-05-05T02:25:52.068Z,23.50
2023-05-05T02:26:52.119Z,23.45
2023-05-05T02:27:52.142Z,23.53
2023-05-05T02:28:52.146Z,23.53
2023-05-05T02:29:52.493Z,23.47
2023-05-05T02:30:52.222Z,23.54
2023-05-05T02:31:52.460Z,23.50
2023-05-05T02:32:52.356Z,23.44
2023-05-05T02:33:52.325Z,23.44
2023-05-05T02:34:52.370Z,23.47
2023-05-05T02:35:52.684Z,23.44
2023-05-05T02:36:52.417Z,23.45
2023-05-05T02:38:52.472Z,23.42
2023-05-05T02:39:52.505Z,23.44
2023-05-05T02:40:52.559Z,23.45
2023-05-05T02:41:52.573Z,23.41
2023-05-05T02:42:52.934Z,23.39
2023-05-05T02:43:52.662Z,23.45
2023-05-05T02:44:52.662Z,23.38
2023-05-05T02:46:52.853Z,23.37
2023-05-05T02:47:52.790Z,23.35
2023-05-05T02:48:52.800Z,23.41
2023-05-05T02:49:53.129Z,23.42
2023-05-05T02:50:52.874Z,23.42
2023-05-05T02:51:52.898Z,23.41
2023-05-05T02:52:52.923Z,23.34
2023-05-05T02:53:52.948Z,23.37
2023-05-05T02:54:52.998Z,23.38
2023-05-05T02:55:53.014Z,23.34
2023-05-05T02:56:53.341Z,23.34
2023-05-05T02:57:53.082Z,23.31
2023-05-05T02:58:53.132Z,23.38
2023-05-05T02:59:53.263Z,23.31
2023-05-05T03:00:53.173Z,23.22
2023-05-05T03:01:53.263Z,23.23
2023-05-05T03:02:53.292Z,23.38
2023-05-05T03:03:53.620Z,23.34
2023-05-05T03:04:53.302Z,23.35
2023-05-05T03:05:53.329Z,23.23
2023-05-05T03:06:53.385Z,23.35
2023-05-05T03:08:53.427Z,23.38
2023-05-05T03:09:53.460Z,23.32
2023-05-05T03:10:53.801Z,23.34
2023-05-05T03:11:53.521Z,23.32
2023-05-05T03:12:53.569Z,23.34
2023-05-05T03:13:53.590Z,23.35
2023-05-05T03:14:53.621Z,23.26
2023-05-05T03:16:53.702Z,23.34
2023-05-05T03:17:54.183Z,23.31
2023-05-05T03:18:53.743Z,23.31
2023-05-05T03:21:53.848Z,23.22
2023-05-05T03:22:53.914Z,23.29
2023-05-05T03:23:53.895Z,23.25
2023-05-05T03:24:54.240Z,23.26
2023-05-05T03:25:53.968Z,23.29
2023-05-05T03:26:54.004Z,23.22
2023-05-05T03:27:54.032Z,23.31
2023-05-05T03:28:54.066Z,23.23
2023-05-05T03:29:54.093Z,23.26
2023-05-05T03:30:54.141Z,23.23
2023-05-05T03:31:54.493Z,23.21
2023-05-05T03:32:54.300Z,23.22
2023-05-05T03:33:54.225Z,23.23
2023-05-05T03:34:54.276Z,23.21
2023-05-05T03:35:54.286Z,23.16
2023-05-05T03:37:54.354Z,23.25
2023-05-05T03:38:54.700Z,23.18
2023-05-05T03:39:54.416Z,23.21
2023-05-05T03:40:54.450Z,23.16
2023-05-05T03:41:54.471Z,23.14
2023-05-05T03:42:54.856Z,23.12
2023-05-05T03:43:54.535Z,23.23
2023-05-05T03:44:54.574Z,23.16
2023-05-05T03:45:54.648Z,23.21
2023-05-05T03:46:54.643Z,23.16
2023-05-05T03:47:54.699Z,23.18
2023-05-05T03:48:54.694Z,23.21
2023-05-05T03:49:54.734Z,23.15
2023-05-05T03:50:54.763Z,23.18
2023-05-05T03:51:55.091Z,23.19
2023-05-05T03:52:54.819Z,23.22
2023-05-05T03:54:54.919Z,23.19
2023-05-05T03:55:54.916Z,23.09
2023-05-05T03:56:54.962Z,23.06
2023-05-05T03:57:55.302Z,23.21
2023-05-05T03:58:55.111Z,23.15
2023-05-05T03:59:55.050Z,23.07
2023-05-05T04:00:55.080Z,23.15
2023-05-05T04:01:55.155Z,23.14
2023-05-05T04:02:55.297Z,23.04
2023-05-05T04:03:55.574Z,23.06
2023-05-05T04:04:55.213Z,23.09
2023-05-05T04:06:55.261Z,23.07
2023-05-05T04:07:55.305Z,23.12
2023-05-05T04:08:55.350Z,23.12
2023-05-05T04:09:55.677Z,23.09
2023-05-05T04:10:55.414Z,23.04
2023-05-05T04:11:55.421Z,23.00
2023-05-05T04:13:55.490Z,23.06
2023-05-05T04:14:55.526Z,22.99
2023-05-05T04:15:55.560Z,23.03
2023-05-05T04:16:55.841Z,23.04
2023-05-05T04:17:55.769Z,23.04
2023-05-05T04:18:55.656Z,22.99
2023-05-05T04:19:55.680Z,23.00
2023-05-05T04:20:55.721Z,23.03
2023-05-05T04:22:55.783Z,22.99
2023-05-05T04:23:56.109Z,22.99
2023-05-05T04:24:55.832Z,23.01
2023-05-05T04:25:55.870Z,23.04
2023-05-05T04:26:55.918Z,23.03
2023-05-05T04:27:55.941Z,23.06
2023-05-05T04:28:55.984Z,23.07
2023-05-05T04:29:56.000Z,23.00
2023-05-05T04:30:56.385Z,23.04
2023-05-05T04:31:56.058Z,23.06
2023-05-05T04:32:56.112Z,23.07
2023-05-05T04:33:56.126Z,23.07
2023-05-05T04:34:56.159Z,23.04
2023-05-05T04:35:56.192Z,23.01
2023-05-05T04:36:56.267Z,23.11
2023-05-05T04:38:56.609Z,23.06
2023-05-05T04:40:56.338Z,23.07
2023-05-05T04:41:56.373Z,23.04
2023-05-05T04:42:56.422Z,23.19
2023-05-05T04:43:56.451Z,23.03
2023-05-05T04:44:56.475Z,23.01
2023-05-05T04:45:56.806Z,23.04
2023-05-05T04:46:56.595Z,23.09
2023-05-05T04:47:56.641Z,23.14
2023-05-05T04:48:56.596Z,23.07
2023-05-05T04:49:56.634Z,23.11
2023-05-05T04:50:56.688Z,23.03
2023-05-05T04:51:56.710Z,23.12
2023-05-05T04:52:57.028Z,23.11
2023-05-05T04:53:56.755Z,23.11
2023-05-05T04:54:56.784Z,23.11
2023-05-05T04:55:56.919Z,23.01
2023-05-05T04:56:57.184Z,23.06
2023-05-05T04:59:57.061Z,23.09
2023-05-05T05:00:56.966Z,23.15
2023-05-05T05:01:57.030Z,23.06
2023-05-05T05:02:57.100Z,23.11
2023-05-05T05:04:57.099Z,23.14
2023-05-05T05:05:57.138Z,23.01
2023-05-05T05:06:59.221Z,23.04
2023-05-05T05:07:57.195Z,23.15
2023-05-05T05:08:57.220Z,23.12
2023-05-05T05:09:57.251Z,23.22
2023-05-05T05:10:57.284Z,23.09
2023-05-05T05:11:57.317Z,23.15
2023-05-05T05:12:57.367Z,23.15
2023-05-05T05:14:57.715Z,23.14
2023-05-05T05:15:57.518Z,23.16
2023-05-05T05:16:57.474Z,23.16
2023-05-05T05:17:57.537Z,23.12
2023-05-05T05:18:57.554Z,23.23
2023-05-05T05:19:57.569Z,23.18
2023-05-05T05:20:57.603Z,23.18
2023-05-05T05:21:57.886Z,23.16
2023-05-05T05:22:57.672Z,23.21
2023-05-05T05:23:57.690Z,23.18
2023-05-05T05:24:57.733Z,23.19
2023-05-05T05:25:57.760Z,23.19
2023-05-05T05:26:57.791Z,23.15
2023-05-05T05:28:58.112Z,23.18
2023-05-05T05:29:57.892Z,23.14
2023-05-05T05:31:58.006Z,23.15
2023-05-05T05:32:58.034Z,23.18
2023-05-05T05:33:58.023Z,23.14
2023-05-05T05:34:58.066Z,23.15
2023-05-05T05:35:58.081Z,23.23
2023-05-05T05:36:58.105Z,23.21
2023-05-05T05:37:58.140Z,23.23
2023-05-05T05:38:58.194Z,23.22
2023-05-05T05:39:58.306Z,23.23
2023-05-05T05:40:58.242Z,23.22
2023-05-05T05:41:58.558Z,23.23
2023-05-05T05:42:58.412Z,23.21
2023-05-05T05:44:58.356Z,23.22
2023-05-05T05:45:58.389Z,23.25
2023-05-05T05:46:58.414Z,23.19
2023-05-05T05:47:58.523Z,23.19
2023-05-05T05:48:58.780Z,23.22
2023-05-05T05:49:58.515Z,23.26
2023-05-05T05:50:58.548Z,23.25
2023-05-05T05:51:58.580Z,23.25
2023-05-05T05:52:58.611Z,23.25
2023-05-05T05:53:59.081Z,23.23
2023-05-05T05:54:58.978Z,23.21
2023-05-05T05:55:58.700Z,23.26
2023-05-05T05:56:58.881Z,23.29
2023-05-05T05:57:58.851Z,23.22
2023-05-05T05:58:58.793Z,23.23
2023-05-05T06:01:59.340Z,23.26
2023-05-05T06:02:59.066Z,23.25
2023-05-05T06:03:59.070Z,23.26
2023-05-05T06:04:58.980Z,23.26
2023-05-05T06:05:59.036Z,23.25
2023-05-05T06:06:59.049Z,23.35
2023-05-05T06:07:59.385Z,23.35
2023-05-05T06:08:59.163Z,23.25
2023-05-05T06:10:01.391Z,23.29
2023-05-05T06:10:59.172Z,23.29
2023-05-05T06:11:59.200Z,23.26
2023-05-05T06:12:59.330Z,23.34
2023-05-05T06:13:59.573Z,23.31
2023-05-05T06:14:59.298Z,23.26
2023-05-05T06:15:59.354Z,23.22
2023-05-05T06:17:59.414Z,23.37
2023-05-05T06:18:59.532Z,23.41
2023-05-05T06:19:59.485Z,23.39
2023-05-05T06:20:59.794Z,23.35
2023-05-05T06:21:59.522Z,23.37
2023-05-05T06:22:59.553Z,23.41
2023-05-05T06:23:59.583Z,23.44
2023-05-05T06:24:59.616Z,23.50
2023-05-05T06:25:59.668Z,23.47
2023-05-05T06:26:59.681Z,23.47
2023-05-05T06:28:59.992Z,23.47
2023-05-05T06:29:59.879Z,23.49
2023-05-05T06:30:59.837Z,23.59
2023-05-05T06:31:59.839Z,23.53
2023-05-05T06:33:00.097Z,23.53
2023-05-05T06:35:00.233Z,23.59
2023-05-05T06:36:00.002Z,23.59
2023-05-05T06:36:59.993Z,23.53
2023-05-05T06:39:00.064Z,23.63
2023-05-05T06:40:00.134Z,23.60
2023-05-05T06:41:00.148Z,23.68
2023-05-05T06:42:00.413Z,23.63
2023-05-05T06:43:00.198Z,23.56
2023-05-05T06:44:00.214Z,23.62
2023-05-05T06:45:00.278Z,23.68
2023-05-05T06:46:00.283Z,23.68
2023-05-05T06:47:00.589Z,23.67
2023-05-05T06:48:00.455Z,23.74
2023-05-05T06:49:00.680Z,23.71
2023-05-05T06:50:00.408Z,23.68
2023-05-05T06:51:01.064Z,23.77
2023-05-05T06:52:00.580Z,23.75
2023-05-05T06:53:00.516Z,23.79
2023-05-05T06:54:00.560Z,23.77
2023-05-05T06:55:00.577Z,23.79
2023-05-05T06:56:00.863Z,23.87
2023-05-05T06:57:00.627Z,23.89
2023-05-05T06:58:00.683Z,23.93
2023-05-05T06:59:00.701Z,23.96
2023-05-05T07:00:00.830Z,23.92
2023-05-05T07:01:00.781Z,23.99
2023-05-05T07:02:00.791Z,23.86
2023-05-05T07:03:01.167Z,23.96
2023-05-05T07:04:00.874Z,23.92
2023-05-05T07:05:00.891Z,23.89
2023-05-05T07:06:00.918Z,24.04
2023-05-05T07:07:00.966Z,23.96
2023-05-05T07:08:01.153Z,23.86
2023-05-05T07:09:01.027Z,23.94
2023-05-05T07:10:01.340Z,23.94
2023-05-05T07:11:01.093Z,23.99
2023-05-05T07:12:01.136Z,23.90
2023-05-05T07:13:01.353Z,23.96
2023-05-05T07:14:01.181Z,23.96
2023-05-05T07:15:09.342Z,23.81
2023-05-05T07:16:01.241Z,23.90
2023-05-05T07:17:01.517Z,23.87
2023-05-05T07:18:01.355Z,23.87
2023-05-05T07:19:01.337Z,23.92
2023-05-05T07:20:01.479Z,23.96
2023-05-05T07:22:01.434Z,23.90
2023-05-05T07:23:01.796Z,23.90
2023-05-05T07:24:01.608Z,23.87
2023-05-05T07:25:01.534Z,23.90
2023-05-05T07:26:01.584Z,23.75
2023-05-05T07:27:01.598Z,23.74
2023-05-05T07:28:01.734Z,23.75
2023-05-05T07:29:01.964Z,23.81
2023-05-05T07:30:02.366Z,23.84
2023-05-05T07:31:01.734Z,23.87
2023-05-05T07:32:01.805Z,23.92
2023-05-05T07:33:01.811Z,23.84
2023-05-05T07:34:01.829Z,23.93
2023-05-05T07:35:02.101Z,23.99
2023-05-05T07:37:01.913Z,24.12
2023-05-05T07:38:01.951Z,24.06
2023-05-05T07:39:01.981Z,24.21
2023-05-05T07:40:02.286Z,24.12
2023-05-05T07:43:02.118Z,24.26
2023-05-05T07:44:02.143Z,24.36
2023-05-05T07:45:02.227Z,24.37
2023-05-05T07:46:02.269Z,24.34
2023-05-05T07:47:02.335Z,24.46
2023-05-05T07:48:02.643Z,24.44
2023-05-05T07:49:02.332Z,24.46
2023-05-05T07:50:02.391Z,24.46
2023-05-05T07:52:02.401Z,24.63
2023-05-05T07:53:13.712Z,24.59
2023-05-05T07:54:02.458Z,24.70
2023-05-05T07:55:02.811Z,24.71
2023-05-05T07:56:02.613Z,24.70
2023-05-05T07:57:02.561Z,24.84
2023-05-05T07:58:02.589Z,24.74
2023-05-05T07:59:02.626Z,24.79
2023-05-05T08:00:02.676Z,24.79
2023-05-05T08:01:02.689Z,24.82
2023-05-05T08:02:03.022Z,24.92
2023-05-05T08:03:02.808Z,24.94
2023-05-05T08:04:02.879Z,24.93
2023-05-05T08:05:02.818Z,24.92
2023-05-05T08:06:02.852Z,24.99
2023-05-05T08:08:02.913Z,24.99
2023-05-05T08:09:02.998Z,24.98
2023-05-05T08:10:03.000Z,25.05
2023-05-05T08:11:03.032Z,25.01
2023-05-05T08:12:03.271Z,25.07
2023-05-05T08:13:03.126Z,25.08
2023-05-05T08:14:03.116Z,25.12
2023-05-05T15:03:10.894Z,24.66
2023-05-05T15:04:10.759Z,24.74
2023-05-05T15:05:11.034Z,24.74
2023-05-05T17:29:06.113Z,24.83
2023-05-05T17:42:52.692Z,24.60
2023-05-05T17:43:52.745Z,24.60
2023-05-05T17:44:52.848Z,24.59
2023-05-05T17:45:52.804Z,24.59
2023-05-05T17:46:52.822Z,24.60
2023-05-05T17:47:52.870Z,24.59
2023-05-05T17:48:53.235Z,24.60
2023-05-05T17:49:53.035Z,24.59
2023-05-05T17:50:52.947Z,24.55
2023-05-05T17:51:52.987Z,24.55
2023-05-05T17:52:52.996Z,24.49
2023-05-05T17:53:53.035Z,24.49
2023-05-05T17:54:53.369Z,24.61
2023-05-05T17:55:53.088Z,24.55
2023-05-05T17:56:53.124Z,24.56
2023-05-05T17:57:53.177Z,24.56
2023-05-05T17:58:53.188Z,24.49
2023-05-05T17:59:53.243Z,24.46
2023-05-05T18:00:53.737Z,24.44
2023-05-05T18:01:53.301Z,24.44
2023-05-05T18:02:53.372Z,24.51
2023-05-05T18:03:53.413Z,24.44
2023-05-05T18:04:53.376Z,24.52
2023-05-05T18:05:53.417Z,24.52
2023-05-05T18:08:53.810Z,24.49
2023-05-05T18:09:53.539Z,24.49
2023-05-05T18:10:53.571Z,24.55
2023-05-05T18:11:53.604Z,24.49
2023-05-05T18:12:53.673Z,24.59
2023-05-05T18:13:53.663Z,24.49
2023-05-05T18:15:54.042Z,24.48
2023-05-05T18:16:53.854Z,24.49
2023-05-05T18:17:53.814Z,24.48
2023-05-05T18:18:53.823Z,24.46
2023-05-05T18:19:53.858Z,24.51
2023-05-05T18:20:53.887Z,24.51
2023-05-05T18:21:53.917Z,24.49
2023-05-05T18:22:54.284Z,24.46
2023-05-05T18:23:57.276Z,24.52
2023-05-05T18:24:54.123Z,24.45
2023-05-05T18:25:54.064Z,24.46
2023-05-05T18:26:54.398Z,24.44
2023-05-05T18:27:54.118Z,24.46
2023-05-05T18:28:54.248Z,24.46
2023-05-05T18:29:54.483Z,24.45
2023-05-05T18:30:54.421Z,24.48
2023-05-05T18:31:54.339Z,24.51
2023-05-05T18:33:54.397Z,24.49
2023-05-05T18:34:54.355Z,24.45
2023-05-05T18:35:54.383Z,24.48
2023-05-05T18:36:54.712Z,24.46
2023-05-05T18:37:54.469Z,24.51
2023-05-05T18:38:54.473Z,24.49
2023-05-05T18:39:54.509Z,24.45
2023-05-05T18:40:54.539Z,24.52
2023-05-05T18:41:54.578Z,24.49
2023-05-05T18:42:54.612Z,24.48
2023-05-05T18:43:54.889Z,24.42
2023-05-05T18:44:54.780Z,24.49
2023-05-05T18:45:55.106Z,24.49
2023-05-05T18:46:54.802Z,24.48
2023-05-05T18:47:54.969Z,24.41
2023-05-05T18:49:54.860Z,24.39
2023-05-05T18:50:55.192Z,24.45
2023-05-05T18:51:54.891Z,24.44
2023-05-05T18:52:55.000Z,24.46
2023-05-05T18:53:54.963Z,24.36
2023-05-05T18:54:55.003Z,24.41
2023-05-05T18:55:55.031Z,24.46
2023-05-05T18:56:55.057Z,24.37
2023-05-05T18:58:55.427Z,24.41
2023-05-05T18:59:55.146Z,24.37
2023-05-05T19:00:55.237Z,24.34
2023-05-05T19:01:55.215Z,24.31
2023-05-05T19:02:55.270Z,24.31
2023-05-05T19:03:55.301Z,24.34
2023-05-05T19:04:55.443Z,24.30
2023-05-05T19:05:55.750Z,24.33
2023-05-05T19:06:55.382Z,24.33
2023-05-05T19:07:55.518Z,24.30
2023-05-05T19:08:55.469Z,24.33
2023-05-05T19:10:55.509Z,24.30
2023-05-05T19:11:55.559Z,24.31
2023-05-05T19:12:56.144Z,24.33
2023-05-05T19:13:55.662Z,24.31
2023-05-05T19:14:55.633Z,24.27
2023-05-05T19:15:55.692Z,24.27
2023-05-05T19:16:55.900Z,24.26
2023-05-05T19:17:55.798Z,24.24
2023-05-05T19:19:56.086Z,24.23
2023-05-05T19:20:55.822Z,24.23
2023-05-05T19:21:55.960Z,24.23
2023-05-05T19:22:55.886Z,24.21
2023-05-05T19:24:55.950Z,24.21
2023-05-05T19:25:55.976Z,24.16
2023-05-05T19:26:56.326Z,24.15
2023-05-05T19:28:56.082Z,24.15
2023-05-05T19:30:56.150Z,24.09
2023-05-05T19:31:56.284Z,24.09
2023-05-05T19:32:56.222Z,24.09
2023-05-05T19:33:56.538Z,24.21
2023-05-05T19:34:56.275Z,24.12
2023-05-05T19:35:56.304Z,24.08
2023-05-05T19:37:56.389Z,24.12
2023-05-05T19:38:56.400Z,24.18
2023-05-05T19:39:56.462Z,24.21
2023-05-05T19:40:56.763Z,24.15
2023-05-05T19:41:56.808Z,24.05
2023-05-05T19:42:56.533Z,24.08
2023-05-05T19:43:56.567Z,24.12
2023-05-05T19:44:56.697Z,24.19
2023-05-05T19:45:56.645Z,24.15
2023-05-05T19:46:56.756Z,24.08
2023-05-05T19:47:57.033Z,24.08
2023-05-05T19:48:56.722Z,24.12
2023-05-05T19:49:56.755Z,24.06
2023-05-05T19:50:56.781Z,24.05
2023-05-05T19:52:56.850Z,24.02
2023-05-05T19:53:56.975Z,23.99
2023-05-05T19:54:57.212Z,24.06
2023-05-05T19:55:56.944Z,24.04
2023-05-05T19:56:57.384Z,24.02
2023-05-05T19:57:57.010Z,24.00
2023-05-05T19:58:57.056Z,24.04
2023-05-05T19:59:57.078Z,23.99
2023-05-05T20:00:57.202Z,23.96
2023-05-05T20:01:57.652Z,23.94
2023-05-05T20:02:57.254Z,24.02
2023-05-05T20:03:57.360Z,23.96
2023-05-05T20:04:57.233Z,23.97
2023-05-05T20:05:58.017Z,23.99
2023-05-05T20:06:57.315Z,23.97
2023-05-05T20:07:57.340Z,23.97
2023-05-05T20:08:57.672Z,23.90
2023-05-05T20:09:58.536Z,23.97
2023-05-05T20:10:57.436Z,23.96
2023-05-05T20:11:57.469Z,23.87
2023-05-05T20:12:57.915Z,23.93
2023-05-05T20:13:57.544Z,23.89
2023-05-05T20:14:57.571Z,23.96
2023-05-05T20:15:57.601Z,23.93
2023-05-05T20:16:57.630Z,23.90
2023-05-05T20:17:57.672Z,23.90
2023-05-05T20:18:57.692Z,23.89
2023-05-05T20:19:57.733Z,23.75
2023-05-05T20:20:57.746Z,23.82
2023-05-05T20:21:58.087Z,23.78
2023-05-05T20:22:57.823Z,23.68
2023-05-05T20:23:57.885Z,23.64
2023-05-05T20:24:57.884Z,23.67
2023-05-05T20:25:58.096Z,23.64
2023-05-05T20:26:57.955Z,23.57
2023-05-05T20:27:58.409Z,23.57
2023-05-05T20:28:58.007Z,23.44
2023-05-05T20:29:58.058Z,23.44
2023-05-05T20:30:58.171Z,23.38
2023-05-05T20:31:58.173Z,23.41
2023-05-05T20:32:58.202Z,23.35
2023-05-05T20:33:58.170Z,23.31
2023-05-05T20:34:58.211Z,23.38
2023-05-05T20:35:58.229Z,23.34
2023-05-05T20:36:58.352Z,23.26
2023-05-05T20:37:58.301Z,23.26
2023-05-05T20:38:58.342Z,23.25
2023-05-05T20:39:58.656Z,23.25
2023-05-05T20:40:58.397Z,23.21
2023-05-05T20:41:58.618Z,23.18
2023-05-05T20:42:58.459Z,23.16
2023-05-05T20:43:58.489Z,23.22
2023-05-05T20:44:58.538Z,23.09
2023-05-05T20:45:58.562Z,23.09
2023-05-05T20:46:58.908Z,23.09
2023-05-05T20:47:58.674Z,23.09
2023-05-05T20:48:58.986Z,23.14
2023-05-05T20:49:58.677Z,23.11
2023-05-05T20:50:58.823Z,23.09
2023-05-05T20:51:58.749Z,23.09
2023-05-05T20:52:58.787Z,23.04
2023-05-05T20:53:59.119Z,23.03
2023-05-05T20:54:58.845Z,23.04
2023-05-05T20:55:58.881Z,23.03
2023-05-05T20:56:58.896Z,23.04
2023-05-05T20:57:59.022Z,23.01
2023-05-05T20:58:58.963Z,22.99
2023-05-05T20:59:59.006Z,22.99
2023-05-05T21:00:59.385Z,23.01
2023-05-05T21:01:59.104Z,22.99
2023-05-05T21:02:59.097Z,23.00
2023-05-05T21:03:59.126Z,22.99
2023-05-05T21:04:59.157Z,23.00
2023-05-05T21:05:59.181Z,22.96
2023-05-05T21:06:59.319Z,23.00
2023-05-05T21:08:59.580Z,22.97
2023-05-05T21:09:59.311Z,22.97
2023-05-05T21:10:59.342Z,22.85
2023-05-05T21:11:59.386Z,22.94
2023-05-05T21:12:59.455Z,22.93
2023-05-05T21:13:59.540Z,22.88
2023-05-05T21:14:59.467Z,22.88
2023-05-05T21:15:59.799Z,22.82
2023-05-05T21:16:59.569Z,22.89
2023-05-05T21:17:59.613Z,22.89
2023-05-05T21:18:59.595Z,22.84
2023-05-05T21:19:59.644Z,22.79
2023-05-05T21:20:59.695Z,22.82
2023-05-05T21:21:59.690Z,22.78
2023-05-05T21:23:00.023Z,22.72
2023-05-05T21:23:59.747Z,22.72
2023-05-05T21:24:59.783Z,22.69
2023-05-05T21:25:59.820Z,22.74
2023-05-05T21:28:59.911Z,22.67
2023-05-05T21:31:20.318Z,22.74
2023-05-05T21:32:00.039Z,22.72
2023-05-05T21:34:00.071Z,22.79
2023-05-05T21:36:00.144Z,22.75
2023-05-05T21:37:00.164Z,22.74
2023-05-05T21:38:00.510Z,22.74
2023-05-05T21:39:00.599Z,22.74
2023-05-05T21:40:00.362Z,22.70
2023-05-05T21:41:00.289Z,22.72
2023-05-05T21:42:00.331Z,22.79
2023-05-05T21:43:00.355Z,22.75
2023-05-05T21:44:00.394Z,22.67
2023-05-05T21:45:00.691Z,22.85
2023-05-05T21:46:00.503Z,22.81
2023-05-05T21:47:00.591Z,22.94
2023-05-05T21:48:00.792Z,22.85
2023-05-05T21:49:00.541Z,22.93
2023-05-05T21:50:00.581Z,22.96
2023-05-05T21:51:00.640Z,22.99
2023-05-05T21:52:00.945Z,23.01
2023-05-05T21:53:00.668Z,23.00
2023-05-05T21:54:00.697Z,23.00
2023-05-05T21:55:00.749Z,23.00
2023-05-05T21:57:00.794Z,23.07
2023-05-05T21:58:00.822Z,23.11
2023-05-05T21:59:01.114Z,23.14
2023-05-05T22:00:00.905Z,23.03
2023-05-05T22:01:00.929Z,23.15
2023-05-05T22:03:01.124Z,23.16
2023-05-05T22:04:01.282Z,23.14
2023-05-05T22:05:01.046Z,23.22
2023-05-05T22:06:02.099Z,23.15
2023-05-05T22:07:01.107Z,23.18
2023-05-05T22:08:01.142Z,23.18
2023-05-05T22:09:01.181Z,23.29
2023-05-05T22:10:01.194Z,23.23
2023-05-05T22:11:01.228Z,23.15
2023-05-05T22:12:01.260Z,23.19
2023-05-05T22:13:01.674Z,23.25
2023-05-05T22:14:01.379Z,23.23
2023-05-05T22:16:01.439Z,23.25
2023-05-05T22:17:01.421Z,23.26
2023-05-05T22:18:01.509Z,23.26
2023-05-05T22:19:01.646Z,23.22
2023-05-05T22:20:01.812Z,23.25
2023-05-05T22:21:01.548Z,23.29
2023-05-05T22:22:01.584Z,23.26
2023-05-05T22:23:01.623Z,23.25
2023-05-05T22:24:01.644Z,23.25
2023-05-05T22:26:01.703Z,23.31
2023-05-05T22:27:02.041Z,23.22
2023-05-05T22:28:01.789Z,23.23
2023-05-05T22:29:01.793Z,23.23
2023-05-05T22:30:01.834Z,23.25
2023-05-05T22:31:01.899Z,23.31
2023-05-05T22:32:01.915Z,23.32
2023-05-05T22:33:02.000Z,23.34
2023-05-05T22:34:02.203Z,23.31
2023-05-05T22:35:02.084Z,23.29
2023-05-05T22:36:02.030Z,23.29
2023-05-05T22:37:02.046Z,23.31
2023-05-05T22:38:02.081Z,23.34
2023-05-05T22:39:02.103Z,23.31
2023-05-05T22:40:02.494Z,23.32
2023-05-05T22:41:02.193Z,23.25
2023-05-05T22:42:02.199Z,23.29
2023-05-05T22:43:02.230Z,23.34
2023-05-05T22:44:02.365Z,23.35
2023-05-05T22:46:02.629Z,23.31
2023-05-05T22:47:02.485Z,23.29
2023-05-05T22:48:02.446Z,23.26
2023-05-05T22:49:02.446Z,23.31
2023-05-05T22:50:02.489Z,23.37
2023-05-05T22:51:02.637Z,23.35
2023-05-05T22:52:02.811Z,23.38
2023-05-05T22:53:02.549Z,23.31
2023-05-05T22:54:02.576Z,23.34
2023-05-05T22:55:02.604Z,23.34
2023-05-05T22:56:02.636Z,23.32
2023-05-05T22:57:02.682Z,23.31
2023-05-05T22:58:02.705Z,23.35
2023-05-05T22:59:03.054Z,23.32
2023-05-05T23:00:02.770Z,23.37
2023-05-05T23:01:02.819Z,23.31
2023-05-05T23:02:02.828Z,23.31
2023-05-05T23:03:02.949Z,23.37
2023-05-05T23:04:02.949Z,23.29
2023-05-05T23:05:02.938Z,23.31
2023-05-05T23:06:03.259Z,23.29
2023-05-05T23:07:03.161Z,23.29
2023-05-05T23:08:03.012Z,23.34
2023-05-05T23:09:03.051Z,23.34
2023-05-05T23:10:03.086Z,23.39
2023-05-05T23:11:03.112Z,23.38
2023-05-05T23:12:03.140Z,23.26
2023-05-05T23:13:03.480Z,23.38
2023-05-05T23:14:03.205Z,23.37
2023-05-05T23:15:03.349Z,23.31
2023-05-05T23:16:03.281Z,23.31
2023-05-05T23:17:03.392Z,23.29
2023-05-05T23:18:03.430Z,23.37
2023-05-05T23:19:03.460Z,23.37
2023-05-05T23:20:03.654Z,23.31
2023-05-05T23:21:03.427Z,23.34
2023-05-05T23:22:03.454Z,23.32
2023-05-05T23:23:03.580Z,23.32
2023-05-05T23:24:03.527Z,23.32
2023-05-05T23:25:03.576Z,23.31
2023-05-05T23:26:03.582Z,23.29
2023-05-05T23:27:03.911Z,23.31
2023-05-05T23:28:03.655Z,23.31
2023-05-05T23:29:03.676Z,23.35
2023-05-05T23:30:03.713Z,23.31